createdAt,value
2019-05-03T00:08:41.522Z,10.73
2019-05-03T00:11:32.704Z,10.69
2019-05-03T00:14:08.002Z,10.70
2019-05-03T00:19:17.585Z,10.73
2019-05-03T00:21:46.925Z,10.79
2019-05-03T00:24:16.261Z,10.81
2019-05-03T00:26:45.608Z,10.76
2019-05-03T00:29:14.948Z,10.93
2019-05-03T00:31:44.298Z,10.87
2019-05-03T00:34:32.757Z,10.73
2019-05-03T00:42:38.741Z,10.85
2019-05-03T00:48:32.584Z,10.86
2019-05-03T00:51:07.318Z,10.89
2019-05-03T00:53:36.678Z,10.93
2019-05-03T00:56:06.089Z,10.81
2019-05-03T01:01:32.036Z,10.86
2019-05-03T01:04:07.045Z,10.76
2019-05-03T01:06:48.894Z,10.88
2019-05-03T01:12:13.749Z,10.88
2019-05-03T01:17:23.552Z,10.85
2019-05-03T01:19:52.900Z,10.75
2019-05-03T01:22:22.734Z,10.78
2019-05-03T01:25:12.383Z,10.77
2019-05-03T01:27:42.734Z,10.77
2019-05-03T01:30:18.337Z,10.76
2019-05-03T01:32:47.691Z,10.91
2019-05-03T01:35:17.046Z,10.84
2019-05-03T01:37:46.372Z,10.71
2019-05-03T01:40:15.721Z,10.86
2019-05-03T01:42:45.059Z,10.79
2019-05-03T01:45:14.475Z,10.74
2019-05-03T01:51:12.035Z,10.87
2019-05-03T01:56:58.779Z,10.93
2019-05-03T01:59:32.049Z,10.89
2019-05-03T02:02:26.221Z,10.85
2019-05-03T02:05:14.678Z,10.92
2019-05-03T02:07:44.034Z,10.87
2019-05-03T02:13:47.499Z,10.96
2019-05-03T02:16:16.771Z,10.86
2019-05-03T02:18:47.766Z,10.90
2019-05-03T02:21:17.183Z,10.86
2019-05-03T02:23:46.524Z,10.83
2019-05-03T02:26:15.879Z,10.92
2019-05-03T02:28:45.210Z,10.97
2019-05-03T02:31:14.569Z,10.97
2019-05-03T02:33:43.909Z,11.00
2019-05-03T02:36:13.759Z,10.96
2019-05-03T02:42:10.877Z,10.89
2019-05-03T02:44:46.103Z,10.83
2019-05-03T02:52:56.952Z,10.87
2019-05-03T02:55:26.481Z,10.86
2019-05-03T02:57:56.474Z,10.86
2019-05-03T03:01:06.680Z,10.79
2019-05-03T03:04:26.282Z,10.86
2019-05-03T03:40:01.737Z,10.95
2019-05-03T03:51:57.448Z,10.82
2019-05-03T04:00:37.361Z,10.69
2019-05-03T04:03:06.784Z,10.71
2019-05-03T04:05:36.202Z,10.76
2019-05-03T04:08:05.892Z,10.64
2019-05-03T04:11:21.935Z,10.79
2019-05-03T04:13:51.279Z,10.67
2019-05-03T04:21:57.050Z,10.68
2019-05-03T04:25:06.305Z,10.68
2019-05-03T04:27:36.487Z,10.66
2019-05-03T04:30:11.942Z,10.69
2019-05-03T04:32:41.296Z,10.74
2019-05-03T04:35:10.701Z,10.64
2019-05-03T04:37:40.053Z,10.73
2019-05-03T04:40:09.476Z,10.71
2019-05-03T04:42:38.819Z,10.62
2019-05-03T04:45:08.242Z,10.67
2019-05-03T04:47:37.591Z,10.77
2019-05-03T04:50:46.853Z,10.60
2019-05-03T04:53:16.378Z,10.80
2019-05-03T04:56:06.331Z,10.65
2019-05-03T04:58:36.606Z,10.75
2019-05-03T05:01:26.210Z,10.72
2019-05-03T05:04:05.181Z,10.73
2019-05-03T05:06:38.956Z,10.65
2019-05-03T05:09:08.711Z,10.70
2019-05-03T05:11:38.070Z,10.86
2019-05-03T05:14:07.418Z,10.86
2019-05-03T05:16:39.581Z,10.80
2019-05-03T05:19:46.144Z,10.85
2019-05-03T05:28:45.059Z,10.92
2019-05-03T05:31:15.192Z,10.86
2019-05-03T05:33:50.615Z,10.71
2019-05-03T05:36:19.966Z,10.53
2019-05-03T05:38:49.332Z,10.58
2019-05-03T05:41:18.677Z,10.47
2019-05-03T05:43:48.015Z,10.50
2019-05-03T05:48:59.466Z,10.56
2019-05-03T05:51:28.817Z,10.45
2019-05-03T05:54:05.230Z,10.39
2019-05-03T05:56:59.227Z,10.17
2019-05-03T05:59:47.678Z,9.92
2019-05-03T06:02:17.198Z,10.12
2019-05-03T06:04:46.538Z,10.23
2019-05-03T06:10:39.721Z,10.04
2019-05-03T06:13:28.171Z,9.81
2019-05-03T06:18:55.656Z,9.80
2019-05-03T06:21:44.824Z,9.56
2019-05-03T06:24:54.341Z,9.37
2019-05-03T06:30:50.241Z,9.51
2019-05-03T06:33:19.720Z,9.59
2019-05-03T06:35:49.046Z,9.55
2019-05-03T06:38:18.483Z,9.58
2019-05-03T06:40:47.832Z,9.75
2019-05-03T06:43:17.174Z,9.80
2019-05-03T06:45:50.406Z,9.87
2019-05-03T06:48:28.009Z,9.84
2019-05-03T06:51:00.339Z,9.98
2019-05-03T06:53:36.167Z,9.87
2019-05-03T06:56:05.586Z,9.73
2019-05-03T06:58:36.493Z,9.95
2019-05-03T07:07:06.237Z,10.09
2019-05-03T07:09:54.760Z,9.90
2019-05-03T07:12:25.056Z,10.11
2019-05-03T07:15:00.730Z,10.09
2019-05-03T07:17:30.066Z,10.37
2019-05-03T07:19:59.400Z,9.97
2019-05-03T07:22:28.746Z,10.06
2019-05-03T07:24:58.313Z,10.11
2019-05-03T07:27:27.757Z,10.24
2019-05-03T07:29:57.074Z,10.10
2019-05-03T07:32:26.417Z,10.20
2019-05-03T07:34:55.761Z,10.31
2019-05-03T07:37:25.094Z,9.94
2019-05-03T07:39:55.631Z,9.97
2019-05-03T07:42:25.699Z,10.01
2019-05-03T07:44:55.970Z,9.85
2019-05-03T07:47:25.420Z,10.12
2019-05-03T07:49:54.813Z,10.00
2019-05-03T07:52:25.891Z,9.97
2019-05-03T07:54:55.294Z,9.83
2019-05-03T07:57:26.231Z,9.90
2019-05-03T07:59:55.798Z,10.13
2019-05-03T08:02:27.524Z,10.28
2019-05-03T08:04:56.229Z,10.38
2019-05-03T08:07:25.895Z,10.43
2019-05-03T08:09:55.656Z,10.70
2019-05-03T08:12:25.190Z,11.01
2019-05-03T08:14:55.149Z,11.16
2019-05-03T08:17:25.521Z,11.14
2019-05-03T08:19:55.411Z,11.32
2019-05-03T08:22:25.509Z,11.48
2019-05-03T08:24:55.686Z,11.50
2019-05-03T08:27:25.333Z,11.59
2019-05-03T08:29:55.764Z,11.94
2019-05-03T08:32:38.912Z,11.39
2019-05-03T08:35:09.889Z,11.84
2019-05-03T08:37:40.896Z,11.91
2019-05-03T08:40:10.677Z,12.29
2019-05-03T08:42:40.014Z,12.54
2019-05-03T08:45:09.423Z,12.37
2019-05-03T08:47:38.750Z,12.06
2019-05-03T08:50:08.157Z,11.68
2019-05-03T08:52:37.483Z,11.74
2019-05-03T08:55:07.564Z,12.06
2019-05-03T08:57:36.911Z,11.98
2019-05-03T09:00:09.065Z,12.00
2019-05-03T09:02:38.396Z,12.16
2019-05-03T09:05:08.776Z,12.14
2019-05-03T09:07:38.103Z,12.17
2019-05-03T09:10:12.443Z,12.61
2019-05-03T09:12:55.544Z,12.49
2019-05-03T09:15:25.420Z,12.47
2019-05-03T09:17:55.369Z,13.11
2019-05-03T09:20:25.048Z,13.01
2019-05-03T09:22:55.205Z,13.36
2019-05-03T09:25:24.850Z,12.79
2019-05-03T09:27:55.250Z,12.53
2019-05-03T09:30:25.209Z,12.53
2019-05-03T09:32:55.687Z,12.11
2019-05-03T09:35:30.593Z,12.45
2019-05-03T09:37:56.152Z,12.42
2019-05-03T09:40:25.497Z,12.59
2019-05-03T09:42:55.168Z,13.12
2019-05-03T09:45:24.710Z,13.42
2019-05-03T09:47:55.204Z,13.36
2019-05-03T09:50:24.955Z,12.85
2019-05-03T09:52:55.447Z,12.91
2019-05-03T09:55:32.325Z,12.99
2019-05-03T09:58:01.841Z,12.99
2019-05-03T10:00:31.173Z,13.13
2019-05-03T10:03:00.516Z,13.82
2019-05-03T10:05:29.853Z,13.91
2019-05-03T10:07:59.692Z,13.91
2019-05-03T10:10:30.672Z,13.45
2019-05-03T10:13:00.180Z,13.35
2019-05-03T10:15:42.026Z,13.04
2019-05-03T10:18:12.990Z,12.95
2019-05-03T10:20:44.504Z,13.42
2019-05-03T10:23:24.810Z,13.74
2019-05-03T10:25:55.205Z,14.13
2019-05-03T10:28:25.194Z,13.68
2019-05-03T10:30:54.841Z,13.36
2019-05-03T10:33:26.205Z,13.72
2019-05-03T10:35:55.516Z,13.75
2019-05-03T10:38:24.913Z,13.79
2019-05-03T10:40:55.015Z,12.86
2019-05-03T10:43:24.866Z,12.86
2019-05-03T10:45:55.809Z,13.01
2019-05-03T10:48:25.205Z,13.09
2019-05-03T10:50:56.424Z,13.16
2019-05-03T10:53:27.198Z,13.17
2019-05-03T10:56:20.221Z,13.03
2019-05-03T10:58:51.164Z,12.78
2019-05-03T11:01:22.132Z,12.86
2019-05-03T11:03:51.476Z,12.88
2019-05-03T11:06:20.812Z,13.03
2019-05-03T11:08:50.153Z,13.23
2019-05-03T11:11:19.487Z,13.26
2019-05-03T11:13:48.816Z,13.79
2019-05-03T11:16:18.164Z,13.68
2019-05-03T11:18:47.491Z,13.84
2019-05-03T11:21:27.841Z,13.53
2019-05-03T11:23:47.863Z,13.53
2019-05-03T11:26:17.194Z,13.94
2019-05-03T11:28:46.825Z,13.97
2019-05-03T11:31:35.418Z,13.19
2019-05-03T11:34:06.576Z,12.94
2019-05-03T11:36:52.554Z,12.94
2019-05-03T11:39:21.896Z,13.23
2019-05-03T11:41:52.871Z,13.27
2019-05-03T11:44:40.322Z,13.27
2019-05-03T11:47:09.855Z,12.84
2019-05-03T11:49:39.223Z,13.00
2019-05-03T11:52:08.644Z,13.00
2019-05-03T11:54:37.971Z,13.41
2019-05-03T11:57:15.782Z,13.95
2019-05-03T11:59:45.380Z,13.39
2019-05-03T12:02:19.004Z,13.56
2019-05-03T12:04:48.335Z,13.84
2019-05-03T12:07:39.444Z,13.84
2019-05-03T12:10:14.906Z,13.71
2019-05-03T12:12:37.764Z,13.71
2019-05-03T12:15:07.937Z,13.70
2019-05-03T12:17:50.949Z,13.47
2019-05-03T12:20:11.453Z,13.47
2019-05-03T12:22:41.744Z,14.03
2019-05-03T12:25:13.261Z,14.03
2019-05-03T12:27:44.508Z,13.85
2019-05-03T12:30:15.359Z,14.47
2019-05-03T12:32:44.734Z,15.09
2019-05-03T12:35:15.374Z,15.09
2019-05-03T12:37:44.792Z,15.67
2019-05-03T12:40:15.108Z,15.72
2019-05-03T12:42:45.420Z,15.76
2019-05-03T12:45:15.380Z,15.18
2019-05-03T12:47:45.276Z,14.86
2019-05-03T12:50:15.621Z,14.97
2019-05-03T12:52:50.520Z,14.97
2019-05-03T12:55:16.131Z,15.01
2019-05-03T12:57:45.896Z,14.97
2019-05-03T13:00:17.963Z,14.97
2019-05-03T13:02:55.045Z,15.08
2019-05-03T13:05:24.973Z,15.39
2019-05-03T13:08:15.272Z,15.50
2019-05-03T13:10:45.384Z,15.69
2019-05-03T13:13:15.189Z,15.63
2019-05-03T13:15:44.535Z,15.78
2019-05-03T13:18:15.705Z,15.48
2019-05-03T13:20:45.448Z,15.47
2019-05-03T13:23:15.050Z,14.86
2019-05-03T13:25:44.848Z,15.34
2019-05-03T13:28:15.340Z,15.50
2019-05-03T13:30:45.292Z,15.21
2019-05-03T13:33:15.271Z,15.73
2019-05-03T13:35:44.757Z,15.81
2019-05-03T13:38:14.039Z,16.20
2019-05-03T13:40:45.180Z,15.65
2019-05-03T13:43:15.044Z,16.25
2019-05-03T13:45:44.977Z,16.54
2019-05-03T13:48:15.563Z,16.38
2019-05-03T13:50:45.619Z,15.95
2019-05-03T13:53:16.158Z,15.62
2019-05-03T13:55:45.659Z,15.64
2019-05-03T13:58:14.976Z,15.55
2019-05-03T14:00:45.327Z,14.92
2019-05-03T14:03:15.301Z,14.64
2019-05-03T14:05:44.845Z,15.06
2019-05-03T14:08:15.630Z,15.50
2019-05-03T14:10:45.639Z,15.64
2019-05-03T14:13:15.426Z,15.66
2019-05-03T14:15:45.289Z,15.17
2019-05-03T14:18:15.599Z,15.17
2019-05-03T14:20:49.654Z,14.76
2019-05-03T14:23:18.996Z,14.76
2019-05-03T14:25:48.381Z,15.07
2019-05-03T14:28:17.712Z,15.73
2019-05-03T14:30:47.050Z,15.89
2019-05-03T14:33:16.372Z,15.89
2019-05-03T14:35:45.710Z,15.38
2019-05-03T14:38:15.265Z,15.00
2019-05-03T14:40:44.960Z,14.67
2019-05-03T14:43:15.677Z,14.91
2019-05-03T14:45:45.002Z,15.57
2019-05-03T14:48:15.230Z,15.32
2019-05-03T14:50:45.591Z,15.69
2019-05-03T14:53:15.050Z,15.11
2019-05-03T14:55:48.667Z,14.33
2019-05-03T14:58:37.521Z,14.84
2019-05-03T15:01:09.291Z,15.27
2019-05-03T15:03:38.619Z,15.27
2019-05-03T15:06:07.938Z,15.12
2019-05-03T15:08:37.350Z,14.08
2019-05-03T15:11:06.737Z,14.22
2019-05-03T15:13:36.072Z,14.28
2019-05-03T15:16:05.435Z,14.28
2019-05-03T15:18:34.962Z,14.74
2019-05-03T15:21:05.490Z,14.74
2019-05-03T15:23:34.943Z,14.64
2019-05-03T15:26:05.102Z,14.31
2019-05-03T15:28:35.606Z,14.31
2019-05-03T15:31:05.377Z,14.92
2019-05-03T15:33:35.344Z,14.92
2019-05-03T15:36:05.032Z,14.78
2019-05-03T15:38:36.887Z,14.97
2019-05-03T15:41:05.592Z,15.15
2019-05-03T15:43:45.451Z,15.15
2019-05-03T15:46:22.216Z,14.06
2019-05-03T15:48:54.985Z,14.06
2019-05-03T15:51:24.650Z,14.19
2019-05-03T15:53:55.134Z,14.19
2019-05-03T15:56:25.265Z,13.94
2019-05-03T15:58:55.154Z,13.94
2019-05-03T16:01:25.028Z,13.84
2019-05-03T16:03:55.578Z,14.18
2019-05-03T16:06:25.001Z,14.18
2019-05-03T16:08:55.235Z,14.58
2019-05-03T16:11:25.413Z,14.41
2019-05-03T16:13:55.468Z,14.41
2019-05-03T16:16:25.079Z,14.43
2019-05-03T16:18:54.347Z,14.13
2019-05-03T16:21:25.182Z,14.02
2019-05-03T16:23:55.567Z,13.84
2019-05-03T16:26:25.156Z,13.74
2019-05-03T16:28:56.120Z,13.53
2019-05-03T16:31:26.633Z,13.53
2019-05-03T16:33:56.033Z,13.37
2019-05-03T16:36:25.360Z,13.32
2019-05-03T16:38:55.374Z,13.28
2019-05-03T16:41:25.001Z,13.12
2019-05-03T16:43:54.614Z,12.89
2019-05-03T16:46:25.985Z,12.85
2019-05-03T16:48:55.407Z,12.68
2019-05-03T16:51:25.370Z,12.77
2019-05-03T16:53:55.107Z,12.86
2019-05-03T16:56:24.635Z,12.90
2019-05-03T16:58:56.777Z,12.90
2019-05-03T17:01:26.247Z,13.01
2019-05-03T17:03:57.222Z,12.99
2019-05-03T17:06:30.876Z,13.14
2019-05-03T17:09:16.926Z,13.56
2019-05-03T17:11:47.891Z,14.05
2019-05-03T17:14:17.715Z,13.80
2019-05-03T17:16:47.817Z,13.80
2019-05-03T17:19:17.358Z,14.08
2019-05-03T17:21:46.714Z,13.52
2019-05-03T17:24:16.056Z,13.63
2019-05-03T17:26:45.384Z,13.61
2019-05-03T17:29:14.709Z,13.33
2019-05-03T17:31:44.473Z,13.03
2019-05-03T17:34:14.510Z,12.88
2019-05-03T17:36:46.059Z,12.88
2019-05-03T17:39:18.500Z,12.94
2019-05-03T17:42:01.571Z,12.72
2019-05-03T17:44:36.837Z,12.72
2019-05-03T17:47:06.169Z,12.74
2019-05-03T17:49:35.489Z,12.86
2019-05-03T17:52:06.635Z,12.80
2019-05-03T17:54:37.933Z,12.66
2019-05-03T17:57:11.762Z,12.62
2019-05-03T17:59:48.644Z,12.62
2019-05-03T18:02:37.745Z,12.63
2019-05-03T18:05:25.684Z,12.67
2019-05-03T18:08:13.040Z,12.68
2019-05-03T18:10:43.996Z,12.60
2019-05-03T18:13:14.334Z,12.51
2019-05-03T18:15:44.945Z,12.43
2019-05-03T18:18:15.773Z,12.36
2019-05-03T18:20:45.214Z,12.32
2019-05-03T18:23:15.370Z,12.21
2019-05-03T18:25:49.811Z,12.17
2019-05-03T18:28:20.116Z,12.21
2019-05-03T18:30:49.625Z,12.25
2019-05-03T18:33:18.954Z,12.13
2019-05-03T18:35:48.282Z,12.19
2019-05-03T18:38:17.614Z,12.10
2019-05-03T18:40:46.928Z,11.98
2019-05-03T18:43:17.906Z,12.00
2019-05-03T18:46:05.495Z,11.95
2019-05-03T18:48:36.105Z,11.94
2019-05-03T18:51:05.498Z,11.99
2019-05-03T18:53:34.843Z,11.92
2019-05-03T18:58:38.581Z,11.95
2019-05-03T19:01:08.171Z,11.84
2019-05-03T19:03:37.515Z,11.60
2019-05-03T19:06:08.806Z,11.72
2019-05-03T19:08:42.192Z,11.58
2019-05-03T19:11:28.035Z,11.64
2019-05-03T19:14:02.001Z,11.60
2019-05-03T19:16:45.577Z,11.52
2019-05-03T19:19:16.619Z,11.48
2019-05-03T19:21:45.963Z,11.38
2019-05-03T19:24:15.288Z,11.33
2019-05-03T19:26:45.065Z,11.46
2019-05-03T19:29:14.869Z,11.58
2019-05-03T19:31:44.950Z,11.61
2019-05-03T19:34:15.437Z,11.61
2019-05-03T19:36:45.660Z,11.47
2019-05-03T19:39:15.240Z,11.52
2019-05-03T19:41:44.927Z,11.38
2019-05-03T19:44:15.122Z,11.41
2019-05-03T19:46:44.642Z,11.32
2019-05-03T19:49:13.931Z,11.30
2019-05-03T19:51:45.043Z,11.29
2019-05-03T19:54:14.724Z,11.24
2019-05-03T19:56:44.584Z,11.27
2019-05-03T19:59:39.925Z,11.27
2019-05-03T20:05:09.141Z,11.24
2019-05-03T20:10:39.263Z,11.30
2019-05-03T20:13:08.602Z,11.19
2019-05-03T20:15:37.931Z,11.27
2019-05-03T20:18:07.270Z,11.26
2019-05-03T20:20:36.598Z,11.33
2019-05-03T20:23:05.921Z,11.32
2019-05-03T20:25:35.546Z,11.39
2019-05-03T20:31:17.880Z,11.37
2019-05-03T20:33:47.206Z,11.35
2019-05-03T20:36:16.782Z,11.25
2019-05-03T20:38:46.174Z,11.20
2019-05-03T20:41:15.574Z,11.25
2019-05-03T20:46:44.135Z,11.15
2019-05-03T20:52:08.989Z,10.95
2019-05-03T20:54:38.318Z,10.99
2019-05-03T20:57:07.647Z,11.02
2019-05-03T20:59:44.945Z,11.02
2019-05-03T21:02:27.112Z,11.01
2019-05-03T21:04:56.470Z,10.99
2019-05-03T21:07:25.806Z,10.95
2019-05-03T21:09:55.134Z,11.02
2019-05-03T21:12:25.249Z,11.01
2019-05-03T21:15:00.955Z,10.92
2019-05-03T21:17:49.459Z,11.01
2019-05-03T21:20:37.910Z,11.18
2019-05-03T21:28:44.944Z,11.33
2019-05-03T21:31:35.233Z,11.33
2019-05-03T21:34:25.170Z,11.23
2019-05-03T21:36:59.820Z,11.24
2019-05-03T21:39:29.156Z,11.20
2019-05-03T21:41:58.487Z,11.22
2019-05-03T21:44:46.939Z,11.24
2019-05-03T21:47:35.379Z,11.12
2019-05-03T21:50:44.788Z,11.02
2019-05-03T21:53:14.751Z,11.08
2019-05-03T21:55:54.207Z,11.12
2019-05-03T21:58:25.032Z,11.14
2019-05-03T22:03:53.865Z,11.16
2019-05-03T22:06:29.155Z,11.14
2019-05-03T22:08:58.547Z,11.14
2019-05-03T22:11:27.818Z,11.13
2019-05-03T22:17:30.754Z,11.02
2019-05-03T22:28:50.947Z,10.95
2019-05-03T22:31:20.284Z,10.92
2019-05-03T22:33:49.606Z,10.83
2019-05-03T22:36:18.924Z,10.87
2019-05-03T22:38:48.258Z,10.82
2019-05-03T22:41:17.583Z,10.87
2019-05-03T22:43:46.909Z,10.92
2019-05-03T22:46:16.238Z,10.96
2019-05-03T22:48:46.642Z,10.98
2019-05-03T22:51:35.678Z,10.90
2019-05-03T22:57:07.313Z,10.79
2019-05-03T22:59:36.641Z,10.66
2019-05-03T23:02:05.988Z,10.72
2019-05-03T23:04:35.668Z,10.79
2019-05-03T23:07:24.967Z,10.65
2019-05-03T23:09:54.694Z,10.78
2019-05-03T23:12:24.102Z,10.67
2019-05-03T23:14:55.120Z,10.74
2019-05-03T23:17:30.146Z,10.81
2019-05-03T23:25:49.152Z,10.94
2019-05-03T23:28:18.476Z,10.86
2019-05-03T23:30:47.823Z,10.97
2019-05-03T23:33:17.148Z,10.86
2019-05-03T23:35:46.482Z,10.83
2019-05-03T23:38:15.819Z,10.68
2019-05-03T23:40:45.141Z,10.85
2019-05-03T23:43:14.515Z,10.84
2019-05-03T23:45:45.296Z,10.84
2019-05-03T23:48:20.443Z,10.81
2019-05-03T23:50:49.766Z,10.62
2019-05-03T23:53:19.361Z,10.50
2019-05-03T23:56:07.815Z,10.33
2019-05-03T23:58:37.150Z,10.22
